createdAt,value
2023-01-15T00:01:37.119Z,16.42
2023-01-15T00:04:44.881Z,17.15
2023-01-15T00:07:50.894Z,14.03
2023-01-15T00:10:58.451Z,14.95
2023-01-15T00:14:03.518Z,13.13
2023-01-15T00:17:09.516Z,12.30
2023-01-15T00:20:14.622Z,12.73
2023-01-15T00:23:22.597Z,11.65
2023-01-15T00:26:50.108Z,12.58
2023-01-15T00:29:56.414Z,12.73
2023-01-15T00:33:02.107Z,10.55
2023-01-15T00:36:08.268Z,11.90
2023-01-15T00:39:16.577Z,12.85
2023-01-15T00:42:23.818Z,11.95
2023-01-15T00:45:31.068Z,12.20
2023-01-15T00:48:36.510Z,12.23
2023-01-15T00:51:42.687Z,12.18
2023-01-15T00:54:41.913Z,12.35
2023-01-15T00:57:47.210Z,11.90
2023-01-15T01:00:53.429Z,11.28
2023-01-15T01:04:00.896Z,11.93
2023-01-15T01:07:07.138Z,11.63
2023-01-15T01:10:13.396Z,11.20
2023-01-15T01:13:20.670Z,11.48
2023-01-15T01:16:50.040Z,11.88
2023-01-15T01:19:59.172Z,13.25
2023-01-15T01:23:06.058Z,10.78
2023-01-15T01:26:12.501Z,12.58
2023-01-15T01:29:17.788Z,12.50
2023-01-15T01:32:23.671Z,10.78
2023-01-15T01:35:29.875Z,12.07
2023-01-15T01:38:37.904Z,11.93
2023-01-15T01:41:46.239Z,10.98
2023-01-15T01:45:03.500Z,10.25
2023-01-15T01:48:14.409Z,10.05
2023-01-15T01:51:19.869Z,10.43
2023-01-15T01:54:24.429Z,10.70
2023-01-15T01:57:31.233Z,11.18
2023-01-15T02:00:38.534Z,11.22
2023-01-15T02:03:47.591Z,10.85
2023-01-15T02:06:54.524Z,10.85
2023-01-15T02:10:00.449Z,10.95
2023-01-15T02:13:26.573Z,9.93
2023-01-15T02:16:44.218Z,11.05
2023-01-15T02:20:35.251Z,11.25
2023-01-15T02:24:03.106Z,11.97
2023-01-15T02:27:25.327Z,11.22
2023-01-15T02:30:36.410Z,11.33
2023-01-15T02:33:55.728Z,12.00
2023-01-15T02:37:06.497Z,10.80
2023-01-15T02:40:13.600Z,12.60
2023-01-15T02:43:22.134Z,12.47
2023-01-15T02:46:28.046Z,12.18
2023-01-15T02:49:35.570Z,11.95
2023-01-15T02:52:44.688Z,12.00
2023-01-15T02:55:55.526Z,14.20
2023-01-15T02:59:04.321Z,12.93
2023-01-15T03:02:16.069Z,13.75
2023-01-15T03:05:25.623Z,13.25
2023-01-15T03:08:30.819Z,12.88
2023-01-15T03:11:36.829Z,11.05
2023-01-15T03:15:06.067Z,12.73
2023-01-15T03:18:13.435Z,12.50
2023-01-15T03:21:22.965Z,11.75
2023-01-15T03:24:29.555Z,12.47
2023-01-15T03:27:36.057Z,11.97
2023-01-15T03:30:43.966Z,11.03
2023-01-15T03:33:51.153Z,12.00
2023-01-15T03:36:56.800Z,11.25
2023-01-15T03:40:02.793Z,12.35
2023-01-15T03:43:30.037Z,11.38
2023-01-15T03:47:02.768Z,12.30
2023-01-15T03:50:24.516Z,11.75
2023-01-15T03:53:42.228Z,11.97
2023-01-15T03:57:08.214Z,11.35
2023-01-15T04:00:18.264Z,11.63
2023-01-15T04:03:24.336Z,13.32
2023-01-15T04:06:32.949Z,15.70
2023-01-15T04:09:38.549Z,18.87
2023-01-15T04:12:45.721Z,21.95
2023-01-15T04:15:52.934Z,22.00
2023-01-15T04:18:59.292Z,18.55
2023-01-15T04:22:06.077Z,19.55
2023-01-15T04:25:10.960Z,15.18
2023-01-15T04:28:16.554Z,14.68
2023-01-15T04:31:23.007Z,12.75
2023-01-15T04:34:30.062Z,13.93
2023-01-15T04:37:36.122Z,22.50
2023-01-15T04:41:00.678Z,17.30
2023-01-15T04:44:16.248Z,15.55
2023-01-15T04:47:23.725Z,15.88
2023-01-15T04:50:29.624Z,13.88
2023-01-15T04:53:35.821Z,13.95
2023-01-15T04:56:41.571Z,13.80
2023-01-15T04:59:48.018Z,12.95
2023-01-15T05:02:54.250Z,13.15
2023-01-15T05:05:59.666Z,14.73
2023-01-15T05:09:06.907Z,16.50
2023-01-15T05:12:12.859Z,13.55
2023-01-15T05:15:20.189Z,13.30
2023-01-15T05:18:25.392Z,14.13
2023-01-15T05:21:34.671Z,12.80
2023-01-15T05:24:40.739Z,12.75
2023-01-15T05:27:46.844Z,11.85
2023-01-15T05:30:55.672Z,13.53
2023-01-15T05:34:02.637Z,14.47
2023-01-15T05:37:09.589Z,13.10
2023-01-15T05:40:14.970Z,12.63
2023-01-15T05:43:21.798Z,13.80
2023-01-15T05:46:26.861Z,14.47
2023-01-15T05:49:36.682Z,17.10
2023-01-15T05:52:42.823Z,15.45
2023-01-15T05:55:47.730Z,16.05
2023-01-15T05:58:53.825Z,16.50
2023-01-15T06:01:59.991Z,16.57
2023-01-15T06:05:05.247Z,14.15
2023-01-15T06:08:11.767Z,14.43
2023-01-15T06:11:18.398Z,13.28
2023-01-15T06:14:26.557Z,14.18
2023-01-15T06:17:32.240Z,15.43
2023-01-15T06:20:41.835Z,14.53
2023-01-15T06:23:47.879Z,14.75
2023-01-15T06:26:54.799Z,15.18
2023-01-15T06:30:01.712Z,18.57
2023-01-15T06:33:08.347Z,13.70
2023-01-15T06:36:21.861Z,13.43
2023-01-15T06:39:26.744Z,12.05
2023-01-15T06:42:50.517Z,11.70
2023-01-15T06:49:19.135Z,11.97
2023-01-15T06:52:25.246Z,12.90
2023-01-15T06:55:32.215Z,12.05
2023-01-15T06:58:38.983Z,12.73
2023-01-15T07:01:46.802Z,13.10
2023-01-15T07:04:55.085Z,12.63
2023-01-15T07:08:00.141Z,11.33
2023-01-15T07:11:06.675Z,13.45
2023-01-15T07:14:15.694Z,11.20
2023-01-15T07:17:21.605Z,12.65
2023-01-15T07:20:29.739Z,11.08
2023-01-15T07:23:36.454Z,13.80
2023-01-15T07:26:43.344Z,17.37
2023-01-15T07:29:50.396Z,12.40
2023-01-15T07:32:57.216Z,15.53
2023-01-15T07:36:04.637Z,17.90
2023-01-15T07:39:11.059Z,11.73
2023-01-15T07:42:36.275Z,11.95
2023-01-15T07:46:01.404Z,15.72
2023-01-15T07:49:25.271Z,21.80
2023-01-15T07:52:33.364Z,11.95
2023-01-15T07:55:41.593Z,10.72
2023-01-15T07:58:47.348Z,9.98
2023-01-15T08:01:53.129Z,13.05
2023-01-15T08:05:00.160Z,12.88
2023-01-15T08:08:09.392Z,19.15
2023-01-15T08:11:35.890Z,14.50
2023-01-15T08:15:00.466Z,9.83
2023-01-15T08:18:09.719Z,9.43
2023-01-15T08:21:16.554Z,11.05
2023-01-15T08:24:22.354Z,10.48
2023-01-15T08:27:27.660Z,10.78
2023-01-15T08:30:38.269Z,9.13
2023-01-15T08:33:44.379Z,9.70
2023-01-15T08:36:51.692Z,11.55
2023-01-15T08:39:59.866Z,9.63
2023-01-15T08:43:06.751Z,10.28
2023-01-15T08:46:14.448Z,10.20
2023-01-15T08:49:20.311Z,11.08
2023-01-15T08:52:25.938Z,8.80
2023-01-15T08:55:31.381Z,9.78
2023-01-15T08:58:40.424Z,11.05
2023-01-15T09:01:48.416Z,12.10
2023-01-15T09:04:55.633Z,11.75
2023-01-15T09:08:01.303Z,10.30
2023-01-15T09:11:08.712Z,8.85
2023-01-15T09:14:58.807Z,9.63
2023-01-15T09:17:21.637Z,9.05
2023-01-15T09:20:29.427Z,9.33
2023-01-15T09:23:35.109Z,10.05
2023-01-15T09:26:47.696Z,10.05
2023-01-15T09:29:55.532Z,10.55
2023-01-15T09:33:04.837Z,10.38
2023-01-15T09:36:10.983Z,10.45
2023-01-15T09:39:16.006Z,9.38
2023-01-15T09:42:38.975Z,7.95
2023-01-15T09:45:47.721Z,8.40
2023-01-15T09:49:16.682Z,9.75
2023-01-15T09:52:38.801Z,9.90
2023-01-15T09:55:52.329Z,9.63
2023-01-15T09:58:57.195Z,8.05
2023-01-15T10:02:03.327Z,7.95
2023-01-15T10:05:13.512Z,8.18
2023-01-15T10:08:27.531Z,7.70
2023-01-15T10:11:39.787Z,8.73
2023-01-15T10:14:52.088Z,7.95
2023-01-15T10:18:04.282Z,8.80
2023-01-15T10:21:36.793Z,7.90
2023-01-15T10:24:54.377Z,7.65
2023-01-15T10:28:05.187Z,7.85
2023-01-15T10:31:13.759Z,8.35
2023-01-15T10:34:42.181Z,7.67
2023-01-15T10:38:20.417Z,7.55
2023-01-15T10:41:38.343Z,8.10
2023-01-15T10:45:02.103Z,8.00
2023-01-15T10:48:15.895Z,6.65
2023-01-15T10:51:35.337Z,7.90
2023-01-15T10:55:00.006Z,7.47
2023-01-15T10:58:15.751Z,8.55
2023-01-15T11:01:28.054Z,7.35
2023-01-15T11:04:34.106Z,9.60
2023-01-15T11:08:10.403Z,7.92
2023-01-15T11:10:56.178Z,8.18
2023-01-15T11:14:27.679Z,9.33
2023-01-15T11:17:51.091Z,7.62
2023-01-15T11:24:07.001Z,7.55
2023-01-15T11:27:14.132Z,7.10
2023-01-15T11:30:22.436Z,9.10
2023-01-15T11:33:41.564Z,7.42
2023-01-15T11:36:47.344Z,8.15
2023-01-15T11:39:55.767Z,7.55
2023-01-15T11:43:20.128Z,8.53
2023-01-15T11:47:03.268Z,12.05
2023-01-15T11:50:26.736Z,9.20
2023-01-15T11:53:39.578Z,8.45
2023-01-15T11:56:46.215Z,9.13
2023-01-15T11:59:52.772Z,8.50
2023-01-15T12:02:59.476Z,7.62
2023-01-15T12:06:16.559Z,8.00
2023-01-15T12:09:44.018Z,9.83
2023-01-15T12:13:16.609Z,10.78
2023-01-15T12:16:39.100Z,9.15
2023-01-15T12:20:16.192Z,9.10
2023-01-15T12:23:37.874Z,8.60
2023-01-15T12:26:46.165Z,8.63
2023-01-15T12:30:02.608Z,9.23
2023-01-15T12:33:29.720Z,11.97
2023-01-15T12:36:38.961Z,10.10
2023-01-15T12:40:03.780Z,10.63
2023-01-15T12:43:28.715Z,12.82
2023-01-15T12:46:44.230Z,11.20
2023-01-15T12:49:58.765Z,9.90
2023-01-15T12:53:06.967Z,9.45
2023-01-15T12:56:36.275Z,9.60
2023-01-15T12:59:50.736Z,9.83
2023-01-15T13:03:03.186Z,10.75
2023-01-15T13:06:11.678Z,9.00
2023-01-15T13:09:52.556Z,11.18
2023-01-15T13:12:58.132Z,10.55
2023-01-15T13:16:57.078Z,9.50
2023-01-15T13:20:48.404Z,10.63
2023-01-15T13:24:15.005Z,12.25
2023-01-15T13:27:54.769Z,10.75
2023-01-15T13:31:23.976Z,11.38
2023-01-15T13:34:58.241Z,12.80
2023-01-15T13:38:05.455Z,12.50
2023-01-15T13:41:11.503Z,11.55
2023-01-15T13:44:17.185Z,11.93
2023-01-15T13:47:28.859Z,10.25
2023-01-15T13:50:43.677Z,9.55
2023-01-15T13:54:00.627Z,13.15
2023-01-15T13:57:05.830Z,13.03
2023-01-15T14:00:12.521Z,13.32
2023-01-15T14:03:41.882Z,11.18
2023-01-15T14:07:02.808Z,10.53
2023-01-15T14:10:09.287Z,17.02
2023-01-15T14:13:29.725Z,14.98
2023-01-15T14:16:41.895Z,12.23
2023-01-15T14:20:12.647Z,10.70
2023-01-15T14:23:42.364Z,12.20
2023-01-15T14:27:04.138Z,16.37
2023-01-15T14:30:25.429Z,15.00
2023-01-15T14:33:50.440Z,13.75
2023-01-15T14:37:08.450Z,14.80
2023-01-15T14:40:17.032Z,16.00
2023-01-15T14:43:28.667Z,14.47
2023-01-15T14:46:50.986Z,14.45
2023-01-15T14:50:01.639Z,12.75
2023-01-15T14:53:09.559Z,13.62
2023-01-15T14:56:37.478Z,17.12
2023-01-15T14:59:54.888Z,13.43
2023-01-15T15:03:02.609Z,12.35
2023-01-15T15:06:09.859Z,13.15
2023-01-15T15:09:19.894Z,13.55
2023-01-15T15:12:49.480Z,16.15
2023-01-15T15:16:15.151Z,16.57
2023-01-15T15:19:29.304Z,17.12
2023-01-15T15:22:38.455Z,18.57
2023-01-15T15:25:46.495Z,20.25
2023-01-15T15:28:54.236Z,18.48
2023-01-15T15:32:11.247Z,16.45
2023-01-15T15:35:16.776Z,16.55
2023-01-15T15:38:23.006Z,15.88
2023-01-15T15:41:30.802Z,17.95
2023-01-15T15:45:05.491Z,19.37
2023-01-15T15:48:29.163Z,22.52
2023-01-15T15:51:50.375Z,20.85
2023-01-15T15:54:56.462Z,17.42
2023-01-15T15:58:05.940Z,18.80
2023-01-15T16:01:12.634Z,19.17
2023-01-15T16:04:18.503Z,16.93
2023-01-15T16:07:34.644Z,16.97
2023-01-15T16:10:50.225Z,16.15
2023-01-15T16:14:06.256Z,16.57
2023-01-15T16:20:15.717Z,15.05
2023-01-15T16:23:39.121Z,14.85
2023-01-15T16:26:56.273Z,15.60
2023-01-15T16:30:07.857Z,16.07
2023-01-15T16:33:20.127Z,15.18
2023-01-15T16:39:58.380Z,13.78
2023-01-15T16:43:16.134Z,13.25
2023-01-15T16:46:31.851Z,13.00
2023-01-15T16:49:44.428Z,12.70
2023-01-15T16:53:01.080Z,13.05
2023-01-15T16:56:07.954Z,12.82
2023-01-15T16:59:14.003Z,15.43
2023-01-15T17:02:28.963Z,14.43
2023-01-15T17:05:37.551Z,14.03
2023-01-15T17:08:50.673Z,14.95
2023-01-15T17:11:56.957Z,14.18
2023-01-15T17:15:04.463Z,14.73
2023-01-15T17:18:12.279Z,15.18
2023-01-15T17:21:18.305Z,16.15
2023-01-15T17:24:24.398Z,15.15
2023-01-15T17:27:32.640Z,16.42
2023-01-15T17:30:41.169Z,18.32
2023-01-15T17:33:47.425Z,19.95
2023-01-15T17:36:52.642Z,20.77
2023-01-15T17:39:59.460Z,20.75
2023-01-15T17:43:07.034Z,23.60
2023-01-15T17:46:12.885Z,20.82
2023-01-15T17:49:18.179Z,21.27
2023-01-15T17:52:28.784Z,19.48
2023-01-15T17:55:55.119Z,22.40
2023-01-15T17:59:19.525Z,18.25
2023-01-15T18:02:44.972Z,19.62
2023-01-15T18:05:51.803Z,19.48
2023-01-15T18:09:01.362Z,18.80
2023-01-15T18:12:07.653Z,19.55
2023-01-15T18:15:13.527Z,20.72
2023-01-15T18:18:19.564Z,19.37
2023-01-15T18:21:25.172Z,19.82
2023-01-15T18:24:32.203Z,19.25
2023-01-15T18:27:37.845Z,19.55
2023-01-15T18:30:42.790Z,17.42
2023-01-15T18:33:49.546Z,16.60
2023-01-15T18:36:56.916Z,16.82
2023-01-15T18:40:04.773Z,15.78
2023-01-15T18:43:28.430Z,17.60
2023-01-15T18:46:55.627Z,16.15
2023-01-15T18:50:02.827Z,16.37
2023-01-15T18:53:10.894Z,16.25
2023-01-15T18:56:21.933Z,15.75
2023-01-15T18:59:23.965Z,16.67
2023-01-15T19:02:31.567Z,17.60
2023-01-15T19:05:38.627Z,17.85
2023-01-15T19:08:45.274Z,16.73
2023-01-15T19:11:53.890Z,17.95
2023-01-15T19:15:18.455Z,17.73
2023-01-15T19:18:44.132Z,18.60
2023-01-15T19:21:57.195Z,16.77
2023-01-15T19:25:05.995Z,16.07
2023-01-15T19:28:12.628Z,16.65
2023-01-15T19:31:41.561Z,16.30
2023-01-15T19:34:50.957Z,18.73
2023-01-15T19:37:56.023Z,18.35
2023-01-15T19:41:02.198Z,17.48
2023-01-15T19:44:25.717Z,18.60
2023-01-15T19:47:49.970Z,17.40
2023-01-15T19:51:01.826Z,18.65
2023-01-15T19:54:08.923Z,18.77
2023-01-15T19:57:13.822Z,18.00
2023-01-15T20:00:15.136Z,17.27
2023-01-15T20:03:10.675Z,17.92
2023-01-15T20:06:16.184Z,18.15
2023-01-15T20:09:24.669Z,18.87
2023-01-15T20:12:47.816Z,18.10
2023-01-15T20:15:55.158Z,16.75
2023-01-15T20:19:04.272Z,16.25
2023-01-15T20:22:10.469Z,17.65
2023-01-15T20:25:17.338Z,18.65
2023-01-15T20:28:23.601Z,16.77
2023-01-15T20:31:33.865Z,16.87
2023-01-15T20:34:42.744Z,16.70
2023-01-15T20:37:49.708Z,16.25
2023-01-15T20:40:58.874Z,17.27
2023-01-15T20:44:17.607Z,16.77
2023-01-15T20:47:13.846Z,19.05
2023-01-15T20:50:22.228Z,18.37
2023-01-15T20:53:29.132Z,18.60
2023-01-15T20:56:37.630Z,18.10
2023-01-15T20:59:43.947Z,18.25
2023-01-15T21:02:50.050Z,18.23
2023-01-15T21:05:57.790Z,18.73
2023-01-15T21:09:04.380Z,18.77
2023-01-15T21:12:09.543Z,19.62
2023-01-15T21:15:17.007Z,19.77
2023-01-15T21:18:23.154Z,20.17
2023-01-15T21:21:32.252Z,19.10
2023-01-15T21:24:38.503Z,21.52
2023-01-15T21:27:45.459Z,20.77
2023-01-15T21:30:54.080Z,20.62
2023-01-15T21:34:01.077Z,19.10
2023-01-15T21:37:07.794Z,19.20
2023-01-15T21:40:14.367Z,20.40
2023-01-15T21:43:39.045Z,21.27
2023-01-15T21:46:47.009Z,20.40
2023-01-15T21:49:52.625Z,19.12
2023-01-15T21:52:59.610Z,19.48
2023-01-15T21:56:06.486Z,20.25
2023-01-15T21:59:15.741Z,18.67
2023-01-15T22:02:23.739Z,19.37
2023-01-15T22:05:29.931Z,19.10
2023-01-15T22:08:36.255Z,19.40
2023-01-15T22:11:53.752Z,19.50
2023-01-15T22:15:00.792Z,22.67
2023-01-15T22:18:09.183Z,21.17
2023-01-15T22:21:22.241Z,20.75
2023-01-15T22:24:28.351Z,23.12
2023-01-15T22:27:37.078Z,20.90
2023-01-15T22:30:44.192Z,20.05
2023-01-15T22:33:51.824Z,20.55
2023-01-15T22:36:59.618Z,21.05
2023-01-15T22:40:05.661Z,20.10
2023-01-15T22:43:11.835Z,19.98
2023-01-15T22:46:28.027Z,20.80
2023-01-15T22:49:32.938Z,19.57
2023-01-15T22:52:39.262Z,21.10
2023-01-15T22:55:45.505Z,18.62
2023-01-15T22:58:51.097Z,20.37
2023-01-15T23:01:56.756Z,20.35
2023-01-15T23:05:03.691Z,20.15
2023-01-15T23:08:11.301Z,20.80
2023-01-15T23:11:27.834Z,21.12
2023-01-15T23:14:34.973Z,20.62
2023-01-15T23:17:40.952Z,20.57
2023-01-15T23:20:47.215Z,22.87
2023-01-15T23:23:53.665Z,21.37
2023-01-15T23:27:01.513Z,21.80
2023-01-15T23:30:08.886Z,22.82
2023-01-15T23:33:15.372Z,21.62
2023-01-15T23:36:21.330Z,22.67
2023-01-15T23:39:27.624Z,25.20
2023-01-15T23:42:53.402Z,22.62
2023-01-15T23:46:21.408Z,23.42
2023-01-15T23:49:27.723Z,23.42
2023-01-15T23:52:33.319Z,23.35
2023-01-15T23:55:38.299Z,23.57
2023-01-15T23:58:43.382Z,22.55
